Willow Beach, Arizona
Current Conditions -  °F | °C
As of 7:51 AM on Saturday 25 Oct 2014 (Local Time) from KIGM Reporting Station
Clear Clear  
Wind Chill: 63°   Ceiling: Unl
Heat Index: 63°   Visibility: NA
Dew Point: 43°   Wind: 9mph
Humidity: 48%   Direction: 140°SE
Pressure: 30.13"   Gusts: NA
Location:  35.19°N, 114.05°W
Report Text: KIGM 251451Z AUTO 14008KT CLR 17/06 A3013 RMK AO2 SLP154 T01720061 53004 $
Loading
Personal Weather Stations






























Interactive Weather Map
Tropical Storm Tracking
New forecast layout! Learn more

10-Day Weather Forecast

Advertisements
Track Severe Weather on mobile